Latest Weather Observations for Rabbit Flat

IDD60801

Issued at 11:05 am CST Friday 28 November 2014 (issued every 30 minutes, with the page automatically refreshed every 10 minutes)

About weather observations | Map of weather stations | Latest weather observations for NT | Other Formats
Station Details ID: 015666 Name: RABBIT FLAT Lat: -20.18 Lon: 130.01 Height: 340.0 m
Data from the previous 72 hours. | See also: Recent months at Rabbit Flat
Date/Time
CST
Temp
°C
App
Temp
°C
Dew
Point
Rel
Hum
%
Delta-T
°C
Wind Press
QNH
hPa
Press
MSL
hPa
Rain
since 9 am
mm
Dir
 
Spd
km/h
Gust
km/h
Spd
kts
Gust
kts
28/11:00am 31.5 30.8 15.4 37 10.1 E 13 24 7 13 1012.0 - 0.0
28/10:30am 31.4 31.3 16.9 41 9.3 ESE 13 20 7 11 1012.3 - 0.0
28/10:00am 29.4 30.3 19.2 54 6.7 SSE 13 19 7 10 1012.8 - 0.0
28/09:30am 27.5 29.9 20.9 67 4.4 S 9 11 5 6 1013.0 - 0.0
28/09:00am 26.1 29.2 21.5 76 3.1 S 7 11 4 6 1013.2 1010.7 0.6
28/08:30am 25.2 28.4 21.3 79 2.6 S 6 7 3 4 1013.3 - 0.6
28/08:00am 24.7 28.0 21.4 82 2.2 S 6 9 3 5 1013.0 - 0.6
28/07:30am 24.4 27.5 21.4 83 2.0 S 7 11 4 6 1012.9 - 0.6
28/07:00am 24.1 28.2 21.6 86 1.7 WSW 2 7 1 4 1012.8 - 0.6
28/06:30am 23.7 28.1 21.3 86 1.6 CALM 0 0 0 0 1012.6 - 0.6
28/06:00am 23.6 26.8 21.2 86 1.6 W 6 7 3 4 1012.3 1009.8 0.6
28/05:30am 23.7 26.5 20.8 84 1.9 WNW 7 11 4 6 1012.1 - 0.6
28/05:00am 23.8 26.2 20.8 83 2.0 WNW 9 11 5 6 1012.0 - 0.6
28/04:30am 23.5 26.6 21.4 88 1.4 WNW 7 9 4 5 1011.8 - 0.6
28/04:00am 23.9 25.4 21.2 85 1.8 N 15 24 8 13 1011.8 - 0.6
28/03:30am 23.8 26.8 21.9 89 1.3 S 9 11 5 6 1011.3 - 0.6
28/03:00am 23.9 27.5 22.0 89 1.3 SSW 6 7 3 4 1011.5 1009.0 0.6
28/02:30am 23.9 28.1 21.8 88 1.4 SW 2 6 1 3 1011.3 - 0.6
28/02:00am 23.7 26.8 21.5 87 1.5 WSW 7 9 4 5 1011.5 - 0.6
28/01:30am 23.8 26.4 21.2 85 1.7 WNW 9 11 5 6 1011.8 - 0.6
28/01:00am 24.0 26.5 21.1 84 1.9 WNW 9 13 5 7 1012.0 - 0.4
28/12:30am 24.1 26.8 21.3 84 1.9 NNW 9 13 5 7 1012.5 - 0.4
28/12:00am 24.4 26.4 20.8 80 2.4 WNW 11 17 6 9 1013.0 1010.5 0.4
 
Date/Time
CST
Temp
°C
App
Temp
°C
Dew
Point
Rel
Hum
%
Delta-T
°C
Wind Press
QNH
hPa
Press
MSL
hPa
Rain
since 9 am
mm
Dir
 
Spd
km/h
Gust
km/h
Spd
kts
Gust
kts
27/11:30pm 24.1 24.6 20.8 82 2.2 SW 19 26 10 14 1012.4 - 0.4
27/11:00pm 23.5 24.1 21.4 88 1.4 WSW 20 26 11 14 1012.3 - 0.4
27/10:30pm 23.8 24.0 21.4 86 1.6 WSW 22 30 12 16 1012.9 - 0.2
27/10:00pm 24.0 25.4 21.9 88 1.4 SW 17 26 9 14 1012.8 - 0.2
27/09:30pm 25.1 25.2 21.2 79 2.6 SW 22 35 12 19 1012.8 - 0.0
27/09:00pm 28.7 29.5 18.2 53 6.8 NE 11 20 6 11 1012.1 1009.5 0.0
27/08:30pm 29.1 29.4 17.8 50 7.3 E 13 20 7 11 1011.2 - 0.0
27/08:00pm 28.7 28.3 18.9 55 6.4 ENE 19 32 10 17 1010.9 - 0.0
27/07:30pm 30.5 29.4 17.7 46 8.3 ENE 20 33 11 18 1010.8 - 0.0
27/07:00pm 32.6 31.4 17.1 39 10.0 NNE 19 30 10 16 1010.0 - 0.0
27/06:30pm 33.1 32.2 15.8 35 11.0 SE 15 22 8 12 1008.5 - 0.0
27/06:00pm 35.3 33.9 16.6 33 12.1 N 19 26 10 14 1008.1 - 0.0
27/05:30pm 36.2 36.6 16.4 31 12.8 N 9 15 5 8 1007.7 - 0.0
27/05:00pm 36.1 34.2 15.2 28 13.3 NNW 19 28 10 15 1007.5 - 0.0
27/04:30pm 36.0 35.8 13.7 26 13.9 SE 7 11 4 6 1007.5 - 0.0
27/04:00pm 36.7 34.5 13.3 24 14.5 NNE 17 22 9 12 1008.0 - 0.0
27/03:30pm 36.7 35.2 14.1 26 14.2 ESE 15 26 8 14 1008.4 - 0.0
27/03:00pm 35.7 34.2 14.3 27 13.4 E 15 22 8 12 1008.9 1006.4 0.0
27/02:30pm 35.0 33.6 14.6 29 12.8 ESE 15 20 8 11 1009.4 - 0.0
27/02:00pm 35.4 35.3 16.1 31 12.4 E 11 20 6 11 1010.0 - 0.0
27/01:30pm 34.4 33.4 15.7 32 11.9 ENE 15 28 8 15 1010.7 - 0.0
27/01:00pm 35.3 33.4 15.1 30 12.8 NE 19 30 10 16 1011.0 - 0.0
27/12:30pm 34.7 32.8 15.3 31 12.3 NNE 19 22 10 12 1011.5 - 0.0
27/12:00pm 33.9 33.4 15.8 33 11.5 E 13 33 7 18 1012.1 1009.6 0.0
27/11:30am 34.1 33.0 15.2 32 11.9 E 15 26 8 14 1012.4 - 0.0
27/11:00am 33.1 31.8 15.7 35 11.0 ESE 17 26 9 14 1012.9 - 0.0
27/10:30am 31.3 30.3 15.7 39 9.8 ESE 15 22 8 12 1013.2 - 0.0
27/10:00am 29.7 28.3 15.6 42 8.8 SE 17 24 9 13 1013.5 - 0.0
27/09:30am 28.2 27.5 16.4 48 7.4 SE 15 20 8 11 1013.5 - 0.0
27/09:00am 27.1 25.9 16.2 51 6.8 SE 17 22 9 12 1013.5 1011.0 1.6
27/08:30am 25.5 24.0 16.2 56 5.8 SE 19 24 10 13 1013.5 - 1.6
27/08:00am 24.8 23.2 16.4 59 5.2 SE 20 30 11 16 1013.5 - 1.6
27/07:30am 24.4 23.0 16.5 61 4.9 SE 19 24 10 13 1013.6 - 1.6
27/07:00am 23.3 22.4 16.9 67 4.0 SE 17 20 9 11 1013.2 - 1.6
27/06:30am 23.1 22.6 16.8 67 3.9 SE 15 20 8 11 1012.6 - 1.6
27/06:00am 23.3 23.6 16.9 67 4.0 ESE 11 19 6 10 1012.3 - 1.6
27/05:30am 23.3 23.8 17.4 69 3.7 SE 11 17 6 9 1012.1 - 1.6
27/05:00am 23.2 24.3 18.0 72 3.3 SE 9 13 5 7 1012.0 - 1.6
27/04:30am 23.3 23.9 17.8 71 3.5 SSE 11 17 6 9 1011.5 - 1.6
27/04:00am 23.4 22.8 17.5 69 3.7 SE 17 24 9 13 1011.1 - 1.6
27/03:30am 23.4 23.2 17.7 70 3.6 SE 15 20 8 11 1011.3 - 1.6
27/03:00am 23.8 22.8 17.6 68 3.9 SE 19 28 10 15 1011.5 - 1.6
27/02:30am 24.0 23.0 18.0 69 3.8 SSE 20 28 11 15 1011.6 - 1.6
27/02:00am 24.3 23.3 18.0 68 4.0 SE 20 30 11 16 1011.7 - 1.4
27/01:30am 24.4 24.0 18.0 67 4.1 SSE 17 24 9 13 1012.2 - 1.4
27/01:00am 24.4 24.2 18.5 69 3.8 SSE 17 24 9 13 1012.4 - 1.2
27/12:30am 24.5 24.1 18.8 70 3.7 SSE 19 26 10 14 1012.6 - 1.0
27/12:00am 24.7 25.2 19.3 72 3.5 SSE 15 20 8 11 1012.6 1010.1 0.6
 
Date/Time
CST
Temp
°C
App
Temp
°C
Dew
Point
Rel
Hum
%
Delta-T
°C
Wind Press
QNH
hPa
Press
MSL
hPa
Rain
since 9 am
mm
Dir
 
Spd
km/h
Gust
km/h
Spd
kts
Gust
kts
26/11:30pm 24.6 25.9 20.2 76 2.9 SSE 13 15 7 8 1012.5 - 0.2
26/11:00pm 25.3 25.2 19.6 70 3.7 S 19 30 10 16 1012.3 - 0.0
26/10:30pm 25.9 26.4 20.0 70 3.9 SSE 17 24 9 13 1012.8 - 0.0
26/10:00pm 26.5 27.4 20.1 68 4.2 SSE 15 20 8 11 1012.1 - 0.0
26/09:30pm 27.4 27.4 20.2 65 4.8 S 20 30 11 16 1011.7 - 0.0
26/09:00pm 27.5 32.0 23.9 81 2.5 S 7 9 4 5 1011.1 1008.6 0.0
26/08:30pm 27.6 32.4 24.5 83 2.2 S 7 7 4 4 1010.6 - 0.0
26/08:00pm 27.8 32.6 24.1 80 2.6 S 6 7 3 4 1010.1 - 0.0
26/07:30pm 28.5 33.1 24.1 77 3.1 SSE 7 9 4 5 1009.5 - 0.0
26/07:00pm 29.1 35.1 24.3 75 3.4 CALM 0 0 0 0 1009.0 - 0.0
26/06:30pm 29.7 35.1 23.2 68 4.5 CALM 0 0 0 0 1008.7 - 0.0
26/06:00pm 29.4 33.0 22.1 65 5.0 WSW 6 7 3 4 1008.5 1006.1 0.0
26/05:30pm 27.7 30.9 22.3 72 3.7 WNW 9 13 5 7 1008.3 - 0.0
26/05:00pm 26.6 30.0 23.3 82 2.3 WSW 11 13 6 7 1008.6 - 0.0
26/04:30pm 25.8 28.8 22.6 82 2.2 SSE 11 15 6 8 1009.0 - 0.0
26/04:00pm 29.1 29.4 19.6 56 6.3 N 17 30 9 16 1009.0 - 0.0
26/03:30pm 28.6 29.3 18.8 55 6.4 W 13 20 7 11 1008.8 - 0.0
26/03:00pm 28.3 28.5 20.2 61 5.4 S 19 35 10 19 1009.3 - 0.0
26/02:52pm 26.1 24.7 20.5 71 3.7 S 28 46 15 25 1009.2 - 0.0
26/02:49pm 28.9 28.9 19.7 57 6.1 SE 19 43 10 23 1009.5 - 0.0
26/02:30pm 34.3 34.4 16.6 34 11.4 ESE 11 15 6 8 1009.0 - 0.0
26/02:00pm 34.3 33.1 16.2 34 11.6 ESE 17 28 9 15 1009.5 - 0.0
26/01:30pm 34.9 34.7 16.6 33 11.8 ESE 13 20 7 11 1010.0 - 0.0
26/01:00pm 34.3 32.8 16.4 34 11.5 E 19 32 10 17 1010.6 - 0.0
26/12:30pm 33.9 33.3 16.7 35 11.1 E 15 24 8 13 1011.0 - 0.0
26/12:00pm 33.6 33.6 17.1 37 10.7 E 13 24 7 13 1011.5 1009.0 0.0
26/11:30am 32.5 31.2 16.8 39 10.1 ESE 19 24 10 13 1012.0 - 0.0
26/11:00am 32.6 32.9 17.1 39 10.0 E 11 26 6 14 1012.4 - 0.0
26/10:30am 30.8 30.2 17.5 45 8.6 E 17 26 9 14 1013.1 - 0.0
26/10:00am 31.0 31.0 18.1 46 8.4 E 15 26 8 14 1013.3 - 0.0
26/09:30am 29.9 30.3 18.9 51 7.2 E 15 24 8 13 1013.5 - 0.0
26/09:00am 28.3 29.5 19.8 60 5.6 E 13 20 7 11 1013.8 - 0.0
26/08:30am 27.2 28.4 19.8 64 4.9 ESE 13 19 7 10 1013.7 - 0.0
26/08:00am 26.6 27.8 19.9 66 4.4 E 13 20 7 11 1013.7 - 0.0
26/07:30am 25.6 27.3 20.1 71 3.6 E 11 15 6 8 1013.6 - 0.0
26/07:00am 23.9 26.7 20.9 83 2.0 SE 7 11 4 6 1013.2 - 0.0
26/06:30am 23.0 25.9 21.0 88 1.3 SSE 7 9 4 5 1012.8 - 0.0
26/06:00am 22.8 25.5 20.7 88 1.4 SSE 7 9 4 5 1012.1 - 0.0
26/05:30am 22.9 25.4 20.3 85 1.7 E 7 9 4 5 1011.6 - 0.0
26/05:00am 23.0 25.5 20.3 85 1.8 ESE 7 7 4 4 1011.4 - 0.0
26/04:30am 23.0 25.7 20.3 85 1.8 SSE 6 7 3 4 1011.2 - 0.0
26/04:00am 23.1 25.8 20.7 86 1.6 SSE 7 9 4 5 1011.2 - 0.0
26/03:30am 23.5 26.0 20.3 82 2.1 ESE 7 9 4 5 1011.0 - 0.0
26/03:00am 23.4 26.3 21.0 86 1.6 SSE 7 9 4 5 1011.0 - 0.0
26/02:30am 24.0 26.1 20.2 79 2.5 SE 9 11 5 6 1010.9 - 0.0
26/02:00am 24.2 26.6 20.1 78 2.7 SSE 7 11 4 6 1011.1 - 0.0
26/01:00am 25.4 25.8 18.9 67 4.2 NE 15 22 8 12 1011.4 - 0.0
26/12:30am 25.6 26.4 19.1 67 4.2 NE 13 20 7 11 1011.7 - 0.0
26/12:00am 25.9 27.4 20.5 72 3.6 NE 13 20 7 11 1012.2 - 0.0
 
Date/Time
CST
Temp
°C
App
Temp
°C
Dew
Point
Rel
Hum
%
Delta-T
°C
Wind Press
QNH
hPa
Press
MSL
hPa
Rain
since 9 am
mm
Dir
 
Spd
km/h
Gust
km/h
Spd
kts
Gust
kts
25/11:30pm 25.8 28.1 21.3 76 3.0 ESE 11 17 6 9 1012.1 - 0.0
25/11:00pm 25.4 28.9 22.2 82 2.2 S 7 11 4 6 1011.7 - 0.0
25/10:30pm 25.6 29.4 22.7 84 2.0 SSE 7 11 4 6 1011.3 - 0.0
25/10:00pm 25.7 29.4 22.3 81 2.3 NNE 6 9 3 5 1011.2 - 0.0
25/09:30pm 25.6 28.0 21.6 78 2.7 N 11 15 6 8 1011.0 - 0.0
25/09:00pm 24.8 27.3 21.7 83 2.1 NNE 11 13 6 7 1010.7 1008.2 0.0
25/08:30pm 24.4 25.5 20.5 79 2.6 E 15 20 8 11 1010.5 - 0.0
25/08:00pm 24.9 23.5 20.5 76 2.9 ESE 28 44 15 24 1010.4 - 0.0
25/07:30pm 26.5 26.6 20.3 68 4.1 E 20 39 11 21 1009.1 - 0.0
25/07:00pm 30.5 28.9 19.1 50 7.5 ESE 26 43 14 23 1008.8 - 0.0
25/06:30pm 33.9 33.4 16.9 36 11.0 E 15 24 8 13 1008.0 - 0.0
25/06:00pm 34.2 33.4 19.2 41 10.0 E 22 44 12 24 1007.2 1004.6 0.0
25/05:30pm 37.1 37.0 20.0 37 11.6 SE 20 30 11 16 1007.0 - 0.0
25/05:00pm 38.6 39.0 20.7 35 12.3 SE 19 28 10 15 1007.0 - 0.0
25/04:30pm 38.2 38.4 20.2 35 12.3 SSE 19 32 10 17 1007.3 - 0.0
25/04:00pm 37.9 37.8 19.6 34 12.4 SSE 19 28 10 15 1007.3 - 0.0
25/03:30pm 38.1 38.1 20.1 35 12.3 SSE 20 35 11 19 1007.5 - 0.0
25/03:00pm 37.0 36.3 18.2 33 12.5 ESE 19 28 10 15 1008.0 1005.5 0.0
25/02:30pm 37.7 37.2 17.9 31 13.1 E 17 35 9 19 1008.5 - 0.0
25/02:00pm 37.0 35.6 16.5 29 13.3 SE 19 30 10 16 1009.3 - 0.0
25/01:30pm 36.7 34.1 15.0 27 13.8 ESE 22 33 12 18 1009.8 - 0.0
25/01:00pm 36.2 34.1 15.3 28 13.3 ESE 20 28 11 15 1010.3 - 0.0
25/12:30pm 35.8 34.6 16.0 30 12.7 ENE 17 28 9 15 1010.9 - 0.0
25/12:00pm 34.5 34.2 16.5 34 11.6 E 13 22 7 12 1011.4 1008.9 0.0
25/11:30am 33.3 33.3 16.2 36 10.9 ESE 11 17 6 9 1011.9 - 0.0

Other Formats:

Comma delimited format used in spreadsheet applications
http://www.bom.gov.au/fwo/IDD60801/IDD60801.95322.axf

JavaScript Object Notation format (JSON) in row-major order
http://www.bom.gov.au/fwo/IDD60801/IDD60801.95322.json